Time;durP1;ratioP1;P1;durP2;ratioP2;P2;SDS_P1;SDS_P2;PMS_P1;PMS_P2;Temp;Humidity;BMP_temperature;BMP_pressure;BME280_temperature;BME280_humidity;BME280_pressure;Samples;Min_cycle;Max_cycle;Signal;HPM_P1;HPM_P2
2022/08/22 06:01:32;;;;;;;;;5.67;5.67;;;;;22.84;52.03;101202.81;5092654;27;45533;-70
2022/08/22 06:04:13;;;;;;;;;5.00;5.00;;;;;22.95;51.64;101193.59;5061176;28;45699;-75
2022/08/22 06:06:50;;;;;;;;;6.33;5.00;;;;;23.11;51.08;101198.31;5064736;27;45375;-73
2022/08/22 06:09:29;;;;;;;;;4.00;4.00;;;;;23.30;50.56;101211.72;5062037;28;45506;-69
2022/08/22 06:12:03;;;;;;;;;5.00;4.33;;;;;23.54;50.22;101214.81;5057823;27;45534;-69
2022/08/22 06:15:03;;;;;;;;;4.00;4.00;;;;;23.81;49.35;101207.53;5065287;27;45587;-71
2022/08/22 06:17:39;;;;;;;;;6.00;4.00;;;;;24.07;49.24;101209.38;5053745;27;45695;-70
2022/08/22 06:20:07;;;;;;;;;5.33;5.00;;;;;24.29;49.07;101208.03;5064537;27;45528;-69
2022/08/22 06:22:44;;;;;;;;;4.00;4.00;;;;;24.51;48.49;101213.88;5066155;27;45704;-69
2022/08/22 06:25:19;;;;;;;;;5.00;5.00;;;;;24.71;47.65;101200.03;5061119;28;45521;-71
2022/08/22 06:27:48;;;;;;;;;5.00;4.00;;;;;24.86;47.40;101200.28;5062377;28;45635;-69
2022/08/22 06:30:16;;;;;;;;;4.00;4.00;;;;;25.07;46.80;101202.50;5064849;28;45539;-68
2022/08/22 06:32:49;;;;;;;;;6.00;6.00;;;;;25.21;46.37;101206.41;5066258;27;48258;-71
2022/08/22 06:36:29;;;;;;;;;5.67;5.33;;;;;25.38;46.25;101211.88;5064898;27;45400;-71
2022/08/22 06:38:19;;;;;;;;;3.33;3.33;;;;;25.49;45.48;101211.53;5063740;27;45525;-69
2022/08/22 06:40:44;;;;;;;;;4.00;3.67;;;;;25.60;45.68;101204.94;5082649;27;46082;-70
2022/08/22 06:43:11;;;;;;;;;8.33;4.67;;;;;25.69;45.39;101213.06;5100419;27;45659;-70
2022/08/22 06:45:39;;;;;;;;;5.33;3.67;;;;;25.78;45.48;101209.31;5106648;27;45497;-70
2022/08/22 06:48:04;;;;;;;;;3.00;3.00;;;;;25.89;44.81;101208.97;5106990;27;45381;-72
2022/08/22 06:50:33;;;;;;;;;3.67;3.67;;;;;25.95;45.17;101210.13;5093155;27;45445;-71
2022/08/22 06:53:20;;;;;;;;;4.00;4.00;;;;;26.04;44.71;101205.53;5103476;27;47608;-71
2022/08/22 06:55:49;;;;;;;;;3.33;3.33;;;;;26.13;44.74;101211.78;5106597;27;45479;-71
2022/08/22 06:58:19;;;;;;;;;5.00;3.00;;;;;26.21;44.40;101208.19;5106666;27;45513;-70
2022/08/22 07:00:50;;;;;;;;;5.00;5.00;;;;;26.23;43.98;101204.25;5101301;27;45547;-69
2022/08/22 07:03:24;;;;;;;;;4.00;4.00;;;;;26.36;43.69;101208.34;5097885;27;46388;-73
2022/08/22 07:05:53;;;;;;;;;5.00;5.00;;;;;26.40;43.73;101205.06;5101415;27;45444;-72
2022/08/22 07:08:21;;;;;;;;;7.33;5.00;;;;;26.45;43.95;101204.56;5100894;27;45506;-71
2022/08/22 07:11:08;;;;;;;;;3.67;3.67;;;;;26.51;43.88;101228.34;5095446;27;45478;-71
2022/08/22 07:13:37;;;;;;;;;6.00;4.67;;;;;26.57;43.45;101226.78;5083270;27;45625;-71
2022/08/22 07:16:06;;;;;;;;;6.00;4.67;;;;;26.62;43.02;101213.47;5083506;27;45477;-71
2022/08/22 07:18:32;;;;;;;;;5.00;4.00;;;;;26.66;43.08;101219.41;5084533;27;45391;-71
2022/08/22 07:21:03;;;;;;;;;4.00;4.00;;;;;26.69;43.32;101222.63;5085642;27;45623;-72
2022/08/22 07:23:31;;;;;;;;;7.67;4.00;;;;;26.72;42.58;101223.31;5080329;27;46398;-72
2022/08/22 07:26:34;;;;;;;;;4.33;3.33;;;;;26.76;43.11;101230.91;5082672;27;45473;-71
2022/08/22 07:29:12;;;;;;;;;5.67;5.00;;;;;26.78;42.23;101222.59;5090077;27;45512;-72
2022/08/22 07:31:49;;;;;;;;;5.00;4.33;;;;;26.82;42.89;101232.91;5085137;27;45506;-71
2022/08/22 07:34:39;;;;;;;;;4.67;3.00;;;;;26.86;42.11;101232.56;5089163;27;46226;-72
2022/08/22 07:37:21;;;;;;;;;6.33;4.67;;;;;26.88;42.48;101230.50;5088492;27;46391;-71
2022/08/22 07:40:02;;;;;;;;;4.00;4.00;;;;;26.94;42.20;101238.00;5088751;27;45552;-73
2022/08/22 07:42:47;;;;;;;;;4.33;3.33;;;;;26.96;42.00;101244.97;5084111;27;45324;-73
2022/08/22 07:45:22;;;;;;;;;4.00;4.00;;;;;27.03;41.84;101238.78;5088955;27;46633;-70
2022/08/22 07:48:06;;;;;;;;;3.33;2.67;;;;;27.06;42.52;101230.28;5085807;27;45454;-70
2022/08/22 07:50:39;;;;;;;;;7.33;7.00;;;;;27.10;42.50;101235.16;5087544;27;45584;-69
2022/08/22 07:53:19;;;;;;;;;9.67;6.67;;;;;27.12;42.48;101234.13;5088197;27;45520;-71
2022/08/22 07:55:46;;;;;;;;;7.33;5.00;;;;;27.15;42.60;101234.63;5087971;27;47619;-73
2022/08/22 07:58:14;;;;;;;;;4.00;4.00;;;;;27.16;42.63;101239.06;5082226;27;47357;-68
2022/08/22 08:00:44;;;;;;;;;7.00;5.67;;;;;27.21;42.49;101235.78;5079242;27;45592;-71
2022/08/22 08:03:11;;;;;;;;;2.67;2.67;;;;;27.23;42.59;101240.00;5081529;27;45571;-71
2022/08/22 08:05:39;;;;;;;;;6.67;5.33;;;;;27.25;42.25;101244.44;5077783;27;46980;-72
2022/08/22 08:08:24;;;;;;;;;5.67;4.00;;;;;27.25;42.32;101247.19;5085095;27;45513;-72
2022/08/22 08:10:53;;;;;;;;;3.00;3.00;;;;;27.25;43.13;101242.56;5081011;27;45433;-72
2022/08/22 08:13:24;;;;;;;;;7.00;5.00;;;;;27.27;42.31;101236.94;5079846;27;45713;-72
2022/08/22 08:15:50;;;;;;;;;3.00;3.00;;;;;27.28;41.88;101247.66;5078020;27;47014;-72
2022/08/22 08:18:22;;;;;;;;;4.00;2.67;;;;;27.32;42.67;101239.94;5081345;27;45513;-74
2022/08/22 08:20:57;;;;;;;;;6.33;4.00;;;;;27.36;42.37;101247.59;5080514;27;45902;-72
2022/08/22 08:23:25;;;;;;;;;3.33;3.33;;;;;27.37;42.19;101248.44;5085749;27;45581;-72
2022/08/22 08:25:59;;;;;;;;;4.00;4.00;;;;;27.39;42.05;101249.09;5081420;27;45948;-72
2022/08/22 08:28:34;;;;;;;;;6.00;4.33;;;;;27.40;41.83;101244.47;5077049;27;45517;-73
2022/08/22 08:31:25;;;;;;;;;4.67;4.67;;;;;27.41;41.96;101252.50;5075260;27;45422;-72
2022/08/22 08:33:59;;;;;;;;;3.33;3.33;;;;;27.40;42.37;101247.22;5088484;27;45676;-72
2022/08/22 08:36:38;;;;;;;;;7.00;6.00;;;;;27.40;42.18;101252.66;5088380;27;45517;-72
2022/08/22 08:39:19;;;;;;;;;4.67;3.00;;;;;27.43;41.85;101252.31;5083270;27;45571;-72
2022/08/22 08:42:06;;;;;;;;;4.33;3.67;;;;;27.43;41.99;101257.75;5085551;27;45511;-72
2022/08/22 08:44:54;;;;;;;;;4.00;4.00;;;;;27.43;42.18;101255.03;5079269;27;45536;-72
2022/08/22 08:47:52;;;;;;;;;3.00;3.00;;;;;27.43;42.44;101247.69;5048090;28;46222;-71
2022/08/22 08:50:54;;;;;;;;;6.33;5.00;;;;;27.43;41.82;101244.97;5047715;28;45467;-71
2022/08/22 08:53:28;;;;;;;;;3.67;3.67;;;;;27.45;43.54;101250.22;5049092;28;45569;-71
2022/08/22 08:56:00;;;;;;;;;6.33;4.00;;;;;27.48;43.67;101255.34;5049752;28;45473;-70
2022/08/22 08:58:59;;;;;;;;;4.33;4.00;;;;;27.48;43.52;101245.28;5032864;28;47727;-71
2022/08/22 09:01:43;;;;;;;;;4.67;4.67;;;;;27.47;44.10;101229.09;5046923;28;45448;-72
2022/08/22 09:04:19;;;;;;;;;4.00;4.00;;;;;27.42;43.61;101226.91;5037298;28;45624;-71
2022/08/22 09:07:24;;;;;;;;;5.33;3.33;;;;;27.43;43.45;101233.22;5043604;28;45452;-71
2022/08/22 09:10:46;;;;;;;;;5.33;5.33;;;;;27.39;43.14;101207.38;5038068;28;46402;-71
